Time;durP1;ratioP1;P1;durP2;ratioP2;P2;SDS_P1;SDS_P2;PMS_P1;PMS_P2;Temp;Humidity;BMP_temperature;BMP_pressure;BME280_temperature;BME280_humidity;BME280_pressure;Samples;Min_cycle;Max_cycle;Signal;HPM_P1;HPM_P2
2023/12/02 00:02:05;;;;;;;22.13;12.53;;;;;;;-6.57;100.00;100145.69;5115065;28;20028;-64
2023/12/02 00:04:32;;;;;;;21.27;12.70;;;;;;;-6.51;100.00;100180.00;5115428;28;20056;-64
2023/12/02 00:06:57;;;;;;;22.08;13.93;;;;;;;-6.57;100.00;100169.03;5113754;28;20081;-65
2023/12/02 00:09:23;;;;;;;18.73;12.53;;;;;;;-6.77;100.00;100148.34;5115190;28;20035;-65
2023/12/02 00:11:50;;;;;;;24.47;14.70;;;;;;;-6.64;100.00;100183.16;5114848;28;20032;-65
2023/12/02 00:14:16;;;;;;;18.75;12.90;;;;;;;-6.68;100.00;100186.75;5115234;28;20075;-64
2023/12/02 00:16:41;;;;;;;20.30;13.48;;;;;;;-6.72;100.00;100179.22;5114995;28;20059;-63
2023/12/02 00:19:07;;;;;;;25.60;15.70;;;;;;;-7.09;100.00;100115.28;5115061;28;20118;-65
2023/12/02 00:21:32;;;;;;;26.53;14.33;;;;;;;-6.85;100.00;100157.38;5115063;28;20065;-65
2023/12/02 00:23:58;;;;;;;36.10;19.60;;;;;;;-6.89;100.00;100147.16;5114946;28;20513;-64
2023/12/02 00:26:24;;;;;;;31.23;18.10;;;;;;;-6.66;100.00;100182.34;5114728;28;20043;-67
2023/12/02 00:28:50;;;;;;;35.43;21.57;;;;;;;-6.49;100.00;100217.03;5114701;28;20043;-66
2023/12/02 00:31:16;;;;;;;37.72;20.48;;;;;;;-6.56;100.00;100200.94;5112820;28;20123;-65
2023/12/02 00:33:42;;;;;;;41.10;21.13;;;;;;;-6.51;100.00;100200.72;5114538;28;20128;-67
2023/12/02 00:36:08;;;;;;;44.27;21.37;;;;;;;-6.51;100.00;100193.78;5114501;28;20549;-66
2023/12/02 00:38:33;;;;;;;41.38;19.15;;;;;;;-6.29;100.00;100201.44;5115813;28;20036;-64
2023/12/02 00:40:59;;;;;;;44.87;19.30;;;;;;;-6.29;100.00;100171.19;5114670;28;20372;-66
2023/12/02 00:43:24;;;;;;;39.83;20.07;;;;;;;-6.02;100.00;100207.94;5113537;28;20036;-64
2023/12/02 00:45:50;;;;;;;36.40;19.90;;;;;;;-6.03;100.00;100195.06;5114567;28;20182;-65
2023/12/02 00:48:16;;;;;;;39.83;19.73;;;;;;;-5.87;100.00;100202.91;5114930;27;20040;-65
2023/12/02 00:50:41;;;;;;;39.70;18.63;;;;;;;-6.02;100.00;100176.84;5117078;28;20031;-63
2023/12/02 00:53:07;;;;;;;48.13;21.97;;;;;;;-5.81;100.00;100205.22;5117514;28;20506;-66
2023/12/02 00:55:32;;;;;;;37.77;18.33;;;;;;;-5.72;100.00;100215.16;5115147;28;20067;-65
2023/12/02 00:57:58;;;;;;;33.47;16.07;;;;;;;-5.83;100.00;100222.59;5114423;28;20374;-64
2023/12/02 01:00:23;;;;;;;41.43;21.07;;;;;;;-6.08;100.00;100200.44;5114401;28;20035;-67
2023/12/02 01:02:50;;;;;;;41.20;18.43;;;;;;;-6.18;100.00;100190.56;5113801;28;20031;-64
2023/12/02 01:05:15;;;;;;;35.35;17.27;;;;;;;-5.97;100.00;100218.94;5113007;28;20524;-66
2023/12/02 01:07:41;;;;;;;34.20;20.60;;;;;;;-5.86;100.00;100223.59;5114010;28;20071;-66
2023/12/02 01:10:07;;;;;;;41.37;19.67;;;;;;;-6.04;100.00;100188.19;5114235;28;20035;-64
2023/12/02 01:12:33;;;;;;;36.58;17.25;;;;;;;-5.82;100.00;100224.28;5114144;28;20092;-64
2023/12/02 01:14:58;;;;;;;38.63;18.13;;;;;;;-5.95;100.00;100195.53;5113928;28;20043;-65
2023/12/02 01:17:24;;;;;;;37.07;17.50;;;;;;;-5.89;100.00;100191.81;5112567;28;20034;-65
2023/12/02 01:19:49;;;;;;;35.90;17.33;;;;;;;-5.64;100.00;100226.84;5112324;28;20382;-65
2023/12/02 01:22:15;;;;;;;35.60;18.23;;;;;;;-5.58;100.00;100228.31;5113715;28;20391;-65
2023/12/02 01:24:41;;;;;;;39.10;18.23;;;;;;;-5.61;100.00;100223.25;5113829;28;20035;-65
2023/12/02 01:27:06;;;;;;;37.80;18.33;;;;;;;-5.62;100.00;100227.63;5114177;28;20042;-63
2023/12/02 01:29:32;;;;;;;36.03;17.37;;;;;;;-5.56;100.00;100242.03;5113692;28;20093;-65
2023/12/02 01:31:57;;;;;;;34.73;18.77;;;;;;;-5.50;100.00;100246.94;5113695;28;20126;-65
2023/12/02 01:34:24;;;;;;;35.60;19.37;;;;;;;-5.45;100.00;100242.38;5113069;28;20062;-63
2023/12/02 01:36:50;;;;;;;36.97;18.38;;;;;;;-5.44;100.00;100254.44;5113110;28;20161;-65
2023/12/02 01:39:15;;;;;;;33.57;17.57;;;;;;;-5.56;100.00;100230.81;5113289;28;20491;-66
2023/12/02 01:41:41;;;;;;;39.10;20.60;;;;;;;-5.48;100.00;100265.06;5112517;28;20448;-65
2023/12/02 01:44:06;;;;;;;43.27;21.87;;;;;;;-5.93;100.00;100201.50;5112877;28;20031;-64
2023/12/02 01:46:32;;;;;;;39.83;19.53;;;;;;;-5.56;100.00;100252.41;5113356;28;20134;-65
2023/12/02 01:48:59;;;;;;;42.47;19.57;;;;;;;-5.46;100.00;100252.84;5112762;28;20082;-65
2023/12/02 01:51:26;;;;;;;36.15;17.92;;;;;;;-5.44;100.00;100244.06;5113145;28;20537;-64
2023/12/02 01:53:52;;;;;;;40.22;18.80;;;;;;;-5.38;100.00;100272.31;5111712;28;20490;-65
2023/12/02 01:56:18;;;;;;;31.27;16.73;;;;;;;-5.57;100.00;100248.13;5112920;28;20131;-66
2023/12/02 01:58:45;;;;;;;37.47;18.50;;;;;;;-5.68;100.00;100240.88;5112903;28;20092;-64
2023/12/02 02:01:11;;;;;;;35.13;19.45;;;;;;;-5.61;100.00;100254.41;5112682;28;20038;-67
2023/12/02 02:03:37;;;;;;;41.23;17.53;;;;;;;-5.58;100.00;100250.81;5112092;28;20055;-66
2023/12/02 02:06:03;;;;;;;40.28;19.50;;;;;;;-5.68;100.00;100229.66;5112899;28;20165;-70
2023/12/02 02:08:29;;;;;;;39.43;19.20;;;;;;;-5.56;100.00;100243.78;5112297;28;20114;-66
2023/12/02 02:10:56;;;;;;;38.47;19.67;;;;;;;-5.39;100.00;100265.44;5112661;28;20043;-66
2023/12/02 02:13:22;;;;;;;34.60;18.67;;;;;;;-5.45;100.00;100250.16;5112516;28;20047;-66
2023/12/02 02:15:48;;;;;;;32.87;17.80;;;;;;;-5.86;100.00;100184.69;5110608;28;20047;-66
2023/12/02 02:18:13;;;;;;;44.63;20.17;;;;;;;-5.33;100.00;100265.13;5112360;28;20077;-66
2023/12/02 02:20:39;;;;;;;41.23;18.33;;;;;;;-5.30;100.00;100254.59;5112102;28;20038;-65
2023/12/02 02:23:04;;;;;;;43.33;18.30;;;;;;;-5.19;100.00;100261.03;5111984;28;20054;-70
2023/12/02 02:25:30;;;;;;;36.67;17.53;;;;;;;-5.26;100.00;100249.25;5112324;28;20031;-66
2023/12/02 02:27:56;;;;;;;37.00;17.07;;;;;;;-5.12;100.00;100255.47;5111702;28;20043;-66
2023/12/02 02:30:24;;;;;;;40.13;17.37;;;;;;;-5.17;100.00;100234.09;5112838;28;20035;-66
2023/12/02 02:32:49;;;;;;;35.38;17.95;;;;;;;-5.20;100.00;100228.22;5112398;28;20474;-66
2023/12/02 02:35:15;;;;;;;30.77;16.93;;;;;;;-4.99;100.00;100255.69;5112648;28;20036;-63
2023/12/02 02:37:41;;;;;;;41.70;20.23;;;;;;;-5.06;100.00;100249.13;5111192;28;20063;-65
2023/12/02 02:40:07;;;;;;;44.27;20.40;;;;;;;-5.15;100.00;100259.97;5111821;28;20032;-71
2023/12/02 02:42:33;;;;;;;49.55;21.92;;;;;;;-5.21;100.00;100266.28;5112634;28;20510;-66
2023/12/02 02:44:58;;;;;;;50.30;25.13;;;;;;;-5.23;100.00;100255.13;5112151;28;20127;-70
2023/12/02 02:47:24;;;;;;;59.40;28.53;;;;;;;-5.18;100.00;100266.16;5112161;28;20441;-68
2023/12/02 02:49:49;;;;;;;62.10;29.27;;;;;;;-5.23;100.00;100264.69;5112230;28;20035;-63
2023/12/02 02:52:15;;;;;;;47.23;26.40;;;;;;;-5.27;100.00;100256.19;5112668;28;20103;-68
2023/12/02 02:54:40;;;;;;;40.50;21.43;;;;;;;-5.06;100.00;100269.91;5112858;28;20039;-67
2023/12/02 02:57:06;;;;;;;47.10;22.43;;;;;;;-5.06;100.00;100277.69;5093528;28;20042;-67
2023/12/02 02:59:31;;;;;;;47.87;21.00;;;;;;;-5.37;100.00;100253.22;5112346;28;20031;-65
2023/12/02 03:01:57;;;;;;;50.30;23.10;;;;;;;-5.58;100.00;100243.03;5111950;28;20036;-67
2023/12/02 03:04:24;;;;;;;52.23;23.03;;;;;;;-5.45;100.00;100270.09;5111932;28;20100;-66
2023/12/02 03:06:49;;;;;;;49.40;22.95;;;;;;;-5.40;100.00;100274.13;5111511;28;20122;-65
2023/12/02 03:09:15;;;;;;;41.90;20.93;;;;;;;-5.78;100.00;100198.16;5111662;28;20513;-64
2023/12/02 03:11:40;;;;;;;42.30;22.23;;;;;;;-5.35;100.00;100276.50;5110296;28;20031;-65
2023/12/02 03:14:06;;;;;;;46.27;20.80;;;;;;;-5.35;100.00;100277.34;5111702;28;20024;-63
2023/12/02 03:16:32;;;;;;;43.03;19.60;;;;;;;-5.33;100.00;100269.47;5112589;28;20499;-66
2023/12/02 03:18:57;;;;;;;51.57;22.93;;;;;;;-5.41;100.00;100262.06;5124691;28;20207;-61
2023/12/02 03:21:23;;;;;;;44.77;20.00;;;;;;;-5.41;100.00;100272.47;5129358;28;20147;-64
2023/12/02 03:23:49;;;;;;;41.60;19.80;;;;;;;-5.35;100.00;100284.28;5128949;28;20104;-64
2023/12/02 03:26:15;;;;;;;41.20;20.77;;;;;;;-5.49;100.00;100265.94;5126407;28;20043;-62
2023/12/02 03:28:40;;;;;;;43.03;22.27;;;;;;;-5.39;100.00;100296.56;5128971;28;20131;-62
2023/12/02 03:31:06;;;;;;;44.87;20.27;;;;;;;-5.43;100.00;100294.22;5131240;28;20031;-64
2023/12/02 03:33:32;;;;;;;47.50;22.27;;;;;;;-5.75;100.00;100256.81;5130446;28;20616;-63
2023/12/02 03:35:57;;;;;;;42.10;20.77;;;;;;;-5.75;100.00;100259.41;5128438;28;20522;-65
2023/12/02 03:38:23;;;;;;;46.23;20.60;;;;;;;-5.62;100.00;100281.25;5130216;28;20035;-61
2023/12/02 03:40:48;;;;;;;44.87;21.47;;;;;;;-5.65;100.00;100284.84;5127990;28;20032;-67
2023/12/02 03:43:14;;;;;;;48.97;20.77;;;;;;;-5.66;100.00;100288.34;5124124;28;20055;-66
2023/12/02 03:45:40;;;;;;;52.63;23.60;;;;;;;-5.84;100.00;100272.78;5127643;28;20039;-62
2023/12/02 03:48:05;;;;;;;48.17;21.00;;;;;;;-5.80;100.00;100295.06;5123748;28;20040;-64
2023/12/02 03:50:31;;;;;;;45.50;19.90;;;;;;;-5.75;100.00;100299.16;5122518;28;20032;-68
2023/12/02 03:52:57;;;;;;;46.80;23.63;;;;;;;-5.58;100.00;100308.72;5122145;28;20157;-65
2023/12/02 03:55:22;;;;;;;48.27;20.87;;;;;;;-5.52;100.00;100303.25;5121903;28;20032;-63
2023/12/02 03:57:48;;;;;;;47.53;20.73;;;;;;;-5.52;100.00;100279.06;5118165;28;20036;-68
2023/12/02 04:00:14;;;;;;;43.60;20.20;;;;;;;-5.52;100.00;100277.28;5118510;28;20047;-71
2023/12/02 04:02:40;;;;;;;45.33;23.83;;;;;;;-5.38;100.00;100295.66;5117486;28;20115;-66
2023/12/02 04:05:08;;;;;;;47.78;22.85;;;;;;;-5.32;100.00;100299.72;5117463;28;20403;-66
2023/12/02 04:07:35;;;;;;;48.20;22.73;;;;;;;-5.34;100.00;100306.72;5118226;28;20051;-66
2023/12/02 04:10:00;;;;;;;46.17;22.15;;;;;;;-5.42;100.00;100299.31;5118275;28;20471;-68
2023/12/02 04:12:26;;;;;;;55.67;26.53;;;;;;;-5.44;100.00;100305.50;5120276;28;20035;-65
2023/12/02 04:14:52;;;;;;;42.53;19.20;;;;;;;-5.55;100.00;100285.22;5115783;28;20027;-66
2023/12/02 04:17:17;;;;;;;37.77;19.93;;;;;;;-6.67;100.00;100100.41;5115836;28;20055;-69
2023/12/02 04:19:43;;;;;;;48.07;21.97;;;;;;;-5.52;100.00;100277.28;5114009;28;20062;-66
2023/12/02 04:22:08;;;;;;;49.83;20.87;;;;;;;-5.32;100.00;100318.72;5096674;28;20042;-67
2023/12/02 04:24:37;;;;;;;45.07;23.53;;;;;;;-5.28;100.00;100323.75;5112141;28;20383;-65
2023/12/02 04:27:03;;;;;;;33.17;15.45;;;;;;;-5.22;100.00;100326.06;5114142;27;20046;-69
2023/12/02 04:29:28;;;;;;;55.70;24.27;;;;;;;-5.16;100.00;100328.38;5114129;28;20433;-66
2023/12/02 04:31:54;;;;;;;39.30;21.77;;;;;;;-5.28;100.00;100305.59;5114366;28;20387;-66
2023/12/02 04:34:19;;;;;;;48.23;24.57;;;;;;;-5.11;100.00;100329.00;5114370;28;20532;-67
2023/12/02 04:36:45;;;;;;;49.03;22.80;;;;;;;-5.51;100.00;100255.63;5114410;28;20032;-66
2023/12/02 04:39:11;;;;;;;46.27;22.63;;;;;;;-5.26;100.00;100288.19;5114390;28;20084;-66
2023/12/02 04:41:38;;;;;;;49.13;23.67;;;;;;;-5.13;100.00;100325.63;5114020;28;20035;-67
2023/12/02 04:44:05;;;;;;;53.28;23.02;;;;;;;-5.10;100.00;100323.72;5113948;28;21108;-66
2023/12/02 04:46:31;;;;;;;46.03;21.63;;;;;;;-5.52;100.00;100259.13;5114411;27;20039;-65
2023/12/02 04:48:57;;;;;;;50.60;24.13;;;;;;;-5.09;100.00;100309.84;5114148;28;20035;-67
2023/12/02 04:51:23;;;;;;;48.63;22.38;;;;;;;-5.08;100.00;100310.69;5114084;28;20061;-64
2023/12/02 04:53:48;;;;;;;47.23;24.73;;;;;;;-4.88;100.00;100327.88;5114166;28;20076;-65
2023/12/02 04:56:14;;;;;;;47.83;24.73;;;;;;;-4.93;100.00;100319.47;5114001;28;20040;-69
2023/12/02 04:58:43;;;;;;;55.27;28.43;;;;;;;-4.88;100.00;100338.28;5114312;28;20042;-67
2023/12/02 05:01:08;;;;;;;57.35;26.30;;;;;;;-5.39;100.00;100286.19;5113699;28;20613;-68
2023/12/02 05:03:35;;;;;;;63.27;25.23;;;;;;;-5.13;100.00;100328.22;5114255;28;20092;-66
2023/12/02 05:06:04;;;;;;;60.70;27.13;;;;;;;-4.93;100.00;100340.22;5113857;28;20054;-67
2023/12/02 05:08:29;;;;;;;61.58;25.60;;;;;;;-4.82;100.00;100344.00;5114023;28;20100;-69
2023/12/02 05:10:55;;;;;;;49.53;23.43;;;;;;;-4.87;100.00;100337.34;5113738;28;20036;-65
2023/12/02 05:13:20;;;;;;;60.73;26.87;;;;;;;-4.90;100.00;100345.31;5113501;28;20024;-66
2023/12/02 05:15:46;;;;;;;57.07;26.57;;;;;;;-4.74;100.00;100351.41;5113842;28;20024;-66
2023/12/02 05:18:11;;;;;;;54.90;24.43;;;;;;;-4.92;100.00;100316.78;5112556;28;20063;-67
2023/12/02 05:20:37;;;;;;;59.20;24.40;;;;;;;-4.71;100.00;100346.91;5113399;28;20049;-66
2023/12/02 05:23:03;;;;;;;62.63;24.07;;;;;;;-4.72;100.00;100353.00;5113247;28;20035;-66
2023/12/02 05:25:28;;;;;;;60.90;25.30;;;;;;;-4.86;100.00;100352.88;5112013;28;20038;-68
2023/12/02 05:27:54;;;;;;;55.07;23.87;;;;;;;-5.20;100.00;100314.72;5113414;28;20493;-63
2023/12/02 05:30:20;;;;;;;62.43;24.83;;;;;;;-5.06;100.00;100340.00;5113376;28;20513;-65
2023/12/02 05:32:46;;;;;;;63.63;26.63;;;;;;;-4.90;100.00;100361.72;5113526;28;20043;-70
2023/12/02 05:35:11;;;;;;;54.97;25.63;;;;;;;-4.93;100.00;100358.41;5113237;28;20031;-66
2023/12/02 05:37:38;;;;;;;56.23;25.07;;;;;;;-4.88;100.00;100375.47;5112976;28;20035;-66
2023/12/02 05:40:04;;;;;;;54.25;25.00;;;;;;;-4.85;100.00;100369.28;5112838;28;20039;-69
2023/12/02 05:42:30;;;;;;;60.10;27.85;;;;;;;-4.77;100.00;100382.75;5113361;27;20036;-67
2023/12/02 05:44:56;;;;;;;54.57;26.07;;;;;;;-4.89;100.00;100389.38;5113474;28;20040;-64
2023/12/02 05:47:21;;;;;;;52.40;22.83;;;;;;;-4.93;100.00;100390.41;5113465;28;20521;-66
2023/12/02 05:49:47;;;;;;;57.67;24.23;;;;;;;-5.15;100.00;100366.41;5112069;28;20384;-66
2023/12/02 05:52:12;;;;;;;53.27;25.60;;;;;;;-4.96;100.00;100398.34;5094690;28;20046;-65
2023/12/02 05:54:38;;;;;;;61.70;27.17;;;;;;;-4.99;100.00;100403.69;5113211;28;20039;-65
2023/12/02 05:57:04;;;;;;;57.47;26.13;;;;;;;-5.04;100.00;100397.91;5116194;28;20035;-65
2023/12/02 05:59:29;;;;;;;63.20;26.97;;;;;;;-5.12;100.00;100394.81;5117361;28;20432;-69
2023/12/02 06:01:55;;;;;;;59.80;28.20;;;;;;;-5.07;100.00;100411.03;5117321;28;20043;-67
2023/12/02 06:04:21;;;;;;;62.60;25.97;;;;;;;-5.25;100.00;100388.50;5117758;28;20055;-67
2023/12/02 06:06:47;;;;;;;54.63;26.05;;;;;;;-5.17;100.00;100399.41;5113750;28;20522;-68
2023/12/02 06:09:13;;;;;;;53.00;27.90;;;;;;;-5.16;100.00;100403.69;5112640;28;20130;-68
2023/12/02 06:11:39;;;;;;;60.60;27.27;;;;;;;-5.23;100.00;100404.84;5112861;28;20035;-66
2023/12/02 06:14:08;;;;;;;59.57;31.17;;;;;;;-5.14;100.00;100418.28;5113508;27;20039;-67
2023/12/02 06:16:33;;;;;;;59.63;26.83;;;;;;;-5.15;100.00;100416.59;5113341;28;20471;-64
2023/12/02 06:18:59;;;;;;;52.30;27.37;;;;;;;-5.33;100.00;100397.50;5112748;28;20079;-68
2023/12/02 06:21:24;;;;;;;53.07;25.57;;;;;;;-5.17;100.00;100417.56;5112743;28;20135;-67
2023/12/02 06:23:50;;;;;;;58.90;28.43;;;;;;;-5.19;100.00;100409.84;5112125;28;20031;-68
2023/12/02 06:26:15;;;;;;;56.80;28.77;;;;;;;-5.04;100.00;100432.50;5112159;28;20085;-67
2023/12/02 06:28:41;;;;;;;48.63;25.40;;;;;;;-5.12;100.00;100413.84;5112150;28;20127;-67
2023/12/02 06:31:13;;;;;;;47.07;23.37;;;;;;;-5.10;100.00;100417.22;5112151;28;20454;-67
2023/12/02 06:33:39;;;;;;;60.88;28.70;;;;;;;-5.12;100.00;100413.84;5112130;28;20035;-68
2023/12/02 06:36:05;;;;;;;47.73;26.20;;;;;;;-5.17;100.00;100415.81;5112423;28;20042;-66
2023/12/02 06:38:30;;;;;;;58.87;30.30;;;;;;;-5.04;100.00;100442.03;5111729;28;20539;-66
2023/12/02 06:40:56;;;;;;;54.27;28.47;;;;;;;-4.93;100.00;100433.72;5112086;28;20034;-68
2023/12/02 06:43:21;;;;;;;54.13;26.07;;;;;;;-5.05;100.00;100401.41;5110255;28;20175;-64
2023/12/02 06:45:47;;;;;;;54.03;27.53;;;;;;;-4.95;100.00;100420.81;5112093;28;20046;-66
2023/12/02 06:48:12;;;;;;;59.83;30.33;;;;;;;-4.99;100.00;100424.47;5110515;28;20126;-66
2023/12/02 06:50:38;;;;;;;51.43;26.83;;;;;;;-4.87;100.00;100436.91;5111757;28;20040;-66
2023/12/02 06:53:05;;;;;;;56.37;26.70;;;;;;;-4.89;100.00;100436.13;5110485;28;20653;-65
2023/12/02 06:55:31;;;;;;;52.60;28.55;;;;;;;-4.83;100.00;100451.41;5111810;28;20042;-65
2023/12/02 06:57:58;;;;;;;54.83;28.05;;;;;;;-5.00;100.00;100444.41;5112170;28;20183;-69
2023/12/02 07:00:25;;;;;;;48.72;26.70;;;;;;;-4.99;100.00;100453.88;5111982;28;20036;-67
2023/12/02 07:02:51;;;;;;;56.58;29.67;;;;;;;-4.81;100.00;100469.53;5111787;28;20062;-70
2023/12/02 07:05:17;;;;;;;48.58;25.95;;;;;;;-4.70;100.00;100468.09;5111996;28;20115;-63
2023/12/02 07:07:42;;;;;;;63.53;25.30;;;;;;;-4.64;100.00;100456.56;5112199;28;20439;-68
2023/12/02 07:10:09;;;;;;;48.20;26.40;;;;;;;-4.51;100.00;100472.44;5111833;28;20035;-65
2023/12/02 07:12:36;;;;;;;54.85;26.67;;;;;;;-4.52;100.00;100468.13;5111662;28;20032;-68
2023/12/02 07:15:04;;;;;;;47.88;28.02;;;;;;;-4.58;100.00;100476.25;5111850;28;20050;-67
2023/12/02 07:17:30;;;;;;;49.47;25.85;;;;;;;-4.76;100.00;100450.22;5112018;28;20036;-64
2023/12/02 07:19:55;;;;;;;51.87;24.80;;;;;;;-4.57;100.00;100485.72;5111951;28;20544;-63
2023/12/02 07:22:21;;;;;;;48.93;26.10;;;;;;;-4.62;100.00;100482.50;5112354;28;20036;-68
2023/12/02 07:24:47;;;;;;;51.70;26.23;;;;;;;-4.54;100.00;100482.97;5112051;28;20035;-65
2023/12/02 07:27:12;;;;;;;48.20;25.80;;;;;;;-4.52;100.00;100481.13;5110283;28;20407;-65
2023/12/02 07:29:38;;;;;;;37.23;23.10;;;;;;;-4.44;100.00;100489.41;5110573;28;20063;-67
2023/12/02 07:32:05;;;;;;;46.33;22.73;;;;;;;-4.28;100.00;100500.75;5111381;28;20537;-65
2023/12/02 07:34:31;;;;;;;51.47;25.52;;;;;;;-4.46;100.00;100481.69;5111724;28;20265;-65
2023/12/02 07:36:57;;;;;;;41.08;21.95;;;;;;;-4.37;100.00;100501.16;5111954;28;20487;-65
2023/12/02 07:39:22;;;;;;;42.43;21.07;;;;;;;-4.40;100.00;100506.53;5111365;27;20164;-66
2023/12/02 07:41:49;;;;;;;49.30;25.00;;;;;;;-4.92;100.00;100438.84;5114910;28;20042;-66
2023/12/02 07:44:16;;;;;;;55.65;26.27;;;;;;;-4.92;100.00;100454.44;5115486;28;20177;-64
2023/12/02 07:46:41;;;;;;;56.72;26.23;;;;;;;-4.61;100.00;100515.38;5115798;28;20051;-66
2023/12/02 07:49:07;;;;;;;43.10;22.77;;;;;;;-4.64;100.00;100502.50;5116134;28;20035;-63
2023/12/02 07:51:32;;;;;;;42.70;24.03;;;;;;;-4.43;100.00;100537.88;5115490;28;20105;-65
2023/12/02 07:53:58;;;;;;;49.07;25.60;;;;;;;-4.58;100.00;100523.00;5116205;28;20413;-66
2023/12/02 07:56:23;;;;;;;48.23;24.27;;;;;;;-4.52;100.00;100538.31;5114749;28;20056;-66
2023/12/02 07:58:49;;;;;;;48.40;26.67;;;;;;;-4.72;100.00;100529.69;5116399;28;20032;-67
2023/12/02 08:01:15;;;;;;;50.17;28.00;;;;;;;-4.63;100.00;100548.34;5117771;27;20074;-63
2023/12/02 08:03:41;;;;;;;50.37;25.00;;;;;;;-6.04;100.00;100323.84;5123336;28;20079;-69
2023/12/02 08:06:07;;;;;;;48.27;26.03;;;;;;;-4.64;100.00;100546.66;5115169;28;20502;-68
2023/12/02 08:08:32;;;;;;;39.13;22.02;;;;;;;-4.63;100.00;100545.75;5119855;28;20032;-63
2023/12/02 08:10:58;;;;;;;48.37;26.83;;;;;;;-4.62;100.00;100548.31;5120437;28;20441;-69
2023/12/02 08:13:24;;;;;;;47.10;23.60;;;;;;;-4.58;100.00;100552.44;5115539;28;20080;-68
2023/12/02 08:15:49;;;;;;;46.20;23.40;;;;;;;-4.73;100.00;100527.16;5113751;28;20031;-67
2023/12/02 08:18:18;;;;;;;46.77;22.17;;;;;;;-4.69;100.00;100545.13;5114945;28;20120;-63
2023/12/02 08:20:44;;;;;;;;;;;;;;;-4.56;100.00;100565.38;5115233;28;20077;-63
2023/12/02 08:23:10;;;;;;;46.93;23.20;;;;;;;-4.82;100.00;100527.59;5114749;28;19927;-65
2023/12/02 08:25:35;;;;;;;45.23;24.73;;;;;;;-4.65;100.00;100561.41;5114596;28;20047;-65
2023/12/02 08:28:01;;;;;;;49.00;26.53;;;;;;;-4.63;100.00;100545.75;5114540;28;20046;-65
2023/12/02 08:30:26;;;;;;;52.43;28.33;;;;;;;-4.55;100.00;100559.25;5114676;28;20050;-67
2023/12/02 08:32:52;;;;;;;43.93;22.50;;;;;;;-4.44;100.00;100568.22;5114391;28;20115;-67
2023/12/02 08:35:17;;;;;;;70.43;29.27;;;;;;;-4.21;100.00;100577.53;5114119;28;20036;-67
2023/12/02 08:37:43;;;;;;;48.87;24.10;;;;;;;-4.04;100.00;100581.09;5114202;28;20043;-69
2023/12/02 08:40:09;;;;;;;42.63;22.53;;;;;;;-3.95;100.00;100581.47;5114256;27;20047;-68
2023/12/02 08:42:34;;;;;;;42.63;24.17;;;;;;;-3.90;100.00;100578.66;5114142;28;20569;-67
2023/12/02 08:45:02;;;;;;;46.83;24.23;;;;;;;-4.32;100.00;100520.00;5114060;28;20118;-67
2023/12/02 08:47:31;;;;;;;45.13;23.50;;;;;;;-3.98;100.00;100591.19;5113967;28;20035;-66
2023/12/02 08:49:57;;;;;;;43.85;23.30;;;;;;;-4.11;100.00;100570.97;5114028;28;20096;-69
2023/12/02 08:52:23;;;;;;;48.08;23.67;;;;;;;-3.89;100.00;100595.94;5113831;28;20490;-69
2023/12/02 08:54:51;;;;;;;48.07;23.90;;;;;;;-3.85;100.00;100597.47;5113956;28;20123;-66
2023/12/02 08:57:17;;;;;;;44.92;22.95;;;;;;;-3.95;100.00;100580.63;5113765;28;20061;-66
2023/12/02 08:59:43;;;;;;;53.13;23.30;;;;;;;-3.78;100.00;100610.09;5112557;28;20036;-69
2023/12/02 09:02:09;;;;;;;46.50;26.07;;;;;;;-3.93;100.00;100605.66;5113642;28;20040;-68
2023/12/02 09:04:35;;;;;;;41.80;23.45;;;;;;;-4.07;100.00;100582.91;5112456;28;20101;-69
2023/12/02 09:07:01;;;;;;;44.60;24.20;;;;;;;-4.11;100.00;100572.72;5113849;28;20047;-68
2023/12/02 09:09:28;;;;;;;41.28;23.27;;;;;;;-3.80;100.00;100616.28;5113635;28;20135;-67
2023/12/02 09:11:53;;;;;;;44.83;25.80;;;;;;;-3.80;100.00;100611.09;5113745;28;20038;-71
2023/12/02 09:14:19;;;;;;;45.03;23.83;;;;;;;-3.87;100.00;100596.69;5113837;27;20406;-69
2023/12/02 09:16:50;;;;;;;56.13;26.43;;;;;;;-3.90;100.00;100604.66;5113586;28;20035;-69
2023/12/02 09:19:30;;;;;;;44.47;25.05;;;;;;;-3.72;100.00;100624.59;5113472;28;20391;-66
2023/12/02 09:21:56;;;;;;;48.03;24.15;;;;;;;-4.09;100.00;100578.69;5112460;28;20472;-68
2023/12/02 09:24:48;;;;;;;42.27;23.93;;;;;;;-3.92;100.00;100612.53;5113754;28;20050;-69
2023/12/02 09:27:52;;;;;;;51.28;25.38;;;;;;;-3.83;100.00;100613.84;5109170;28;20040;-68
2023/12/02 09:30:17;;;;;;;47.28;24.42;;;;;;;-3.97;100.00;100579.88;5113537;28;20031;-67
2023/12/02 09:32:45;;;;;;;47.30;24.97;;;;;;;-3.66;100.00;100610.44;5113195;28;20032;-67
2023/12/02 09:35:14;;;;;;;46.20;25.40;;;;;;;-3.68;100.00;100599.25;5111927;28;20031;-71
2023/12/02 09:37:50;;;;;;;49.28;24.67;;;;;;;-3.52;100.00;100616.63;5111664;28;20035;-69
2023/12/02 09:40:19;;;;;;;48.83;25.23;;;;;;;-3.48;100.00;100628.56;5112899;28;20028;-70
2023/12/02 09:42:49;;;;;;;51.80;26.48;;;;;;;-3.67;100.00;100591.38;5113238;27;20039;-69
2023/12/02 09:45:17;;;;;;;40.67;20.17;;;;;;;-3.72;100.00;100590.75;5113066;28;20156;-69
2023/12/02 09:47:56;;;;;;;43.95;23.23;;;;;;;-3.69;100.00;100593.19;5113245;28;20071;-67
2023/12/02 09:50:28;;;;;;;44.60;23.70;;;;;;;-3.55;100.00;100618.53;5111370;28;20100;-69
2023/12/02 09:53:14;;;;;;;43.10;22.23;;;;;;;-3.61;100.00;100606.66;5113181;28;20491;-68
2023/12/02 09:55:51;;;;;;;39.60;20.45;;;;;;;-3.68;100.00;100607.91;5111816;28;20024;-66
2023/12/02 09:58:24;;;;;;;40.08;22.17;;;;;;;-3.63;100.00;100629.34;5112339;28;20412;-68
2023/12/02 10:00:59;;;;;;;36.60;19.95;;;;;;;-3.52;100.00;100632.22;5113809;28;20038;-67
2023/12/02 10:03:48;;;;;;;41.78;21.05;;;;;;;-3.44;100.00;100632.72;5112821;28;20510;-68
2023/12/02 10:06:13;;;;;;;36.63;20.48;;;;;;;-3.35;100.00;100639.22;5113176;28;20048;-70
2023/12/02 10:09:00;;;;;;;40.57;21.33;;;;;;;-3.24;100.00;100641.25;5111282;28;20051;-68
2023/12/02 10:11:25;;;;;;;42.90;21.38;;;;;;;-3.19;100.00;100639.25;5112775;27;20035;-69
2023/12/02 10:14:00;;;;;;;32.57;18.90;;;;;;;-3.23;100.00;100635.97;5112593;27;20044;-67
2023/12/02 10:16:30;;;;;;;33.75;19.67;;;;;;;-3.37;100.00;100624.59;5111544;28;20114;-72
2023/12/02 10:19:00;;;;;;;42.38;21.92;;;;;;;-3.33;100.00;100631.31;5112614;28;20043;-70
2023/12/02 10:21:31;;;;;;;42.75;23.27;;;;;;;-3.54;100.00;100621.06;5110904;28;20042;-68
2023/12/02 10:24:02;;;;;;;34.22;18.98;;;;;;;-3.56;100.00;100651.53;5112474;28;20062;-66
2023/12/02 10:26:32;;;;;;;42.65;23.23;;;;;;;-3.60;100.00;100636.16;5112371;28;20047;-67
2023/12/02 10:29:24;;;;;;;61.58;29.90;;;;;;;-3.43;100.00;100654.38;5110937;28;20031;-67
2023/12/02 10:32:20;;;;;;;47.78;23.13;;;;;;;-3.41;100.00;100659.50;5111928;28;20478;-66
2023/12/02 10:35:09;;;;;;;44.88;24.50;;;;;;;-3.47;100.00;100651.09;5111840;28;20468;-66
2023/12/02 10:37:49;;;;;;;47.90;22.42;;;;;;;-3.45;100.00;100644.06;5111895;28;20090;-67
2023/12/02 10:40:18;;;;;;;59.65;27.45;;;;;;;-3.37;100.00;100661.03;5111746;28;20035;-70
2023/12/02 10:42:48;;;;;;;48.78;23.58;;;;;;;-3.36;100.00;100667.94;5112054;28;20036;-67
2023/12/02 10:45:15;;;;;;;52.95;26.35;;;;;;;-3.71;100.00;100612.41;5111750;28;20039;-68
2023/12/02 10:47:42;;;;;;;42.63;20.90;;;;;;;-3.39;100.00;100668.09;5112227;28;20031;-67
2023/12/02 10:50:08;;;;;;;49.25;24.75;;;;;;;-3.52;100.00;100666.06;5111725;28;20031;-68
2023/12/02 10:52:36;;;;;;;47.30;23.53;;;;;;;-3.46;100.00;100671.00;5111574;28;20160;-69
2023/12/02 10:55:03;;;;;;;54.08;26.05;;;;;;;-3.74;100.00;100631.63;5114223;28;20063;-65
2023/12/02 10:57:31;;;;;;;52.50;27.63;;;;;;;-3.89;100.00;100606.34;5112967;28;20069;-66
2023/12/02 10:59:56;;;;;;;43.00;22.80;;;;;;;-3.48;100.00;100690.19;5111930;28;20031;-63
2023/12/02 11:02:30;;;;;;;44.13;22.23;;;;;;;-3.65;100.00;100682.38;5117615;28;20080;-66